Estación meteorológica de Els Cortals - St. Hilari Sacalm (La Selva, Guilleries)

Consulta los datos en tiempo real de la estación meteorológica de Els Cortals - St. Hilari Sacalm





Hora UTC 08:10
Temperatura 22.3 ºC
Humedad 63.0 %
Presión 1011.7 hPa
Pluja 0.0 mm
Velocidad viento 0.0 km/h
Dirección viento E

Datos diarios 2026-08-31



Hora UTC (invierno +1h; verano +2h)
Temperatura (ºC) Humedad (%) Presión (hPa) Velocidad viento (km/h) Precipitación (mm)
Hora UTC Aire Humedad Presión Vel. Dir. Vel. Max Dir. Intent. máx 5 min.
00:05 20.1 62.0 1010.7 0.0 WSW 0.0 0.0
00:10 20.2 63.0 1010.8 0.0 WSW 0.0 0.0
00:15 20.2 63.0 1010.7 0.0 W 0.0 0.0
00:20 20.3 63.0 1010.7 0.0 W 0.0 0.0
00:25 20.3 63.0 1010.7 0.0 W 0.0 0.0
00:30 20.4 63.0 1010.7 0.0 W 0.0 0.0
00:35 20.5 63.0 1010.7 0.0 W 0.0 0.0
00:40 20.5 64.0 1010.8 0.0 W 0.0 0.0
00:45 20.5 64.0 1010.7 0.0 W 0.0 0.0
00:50 20.4 64.0 1010.8 0.0 W 0.0 0.0
00:55 20.3 65.0 1010.7 0.0 W 0.0 0.0
01:00 20.3 65.0 1010.6 0.0 NE 0.0 0.0
01:05 20.3 65.0 1010.7 0.0 NE 0.0 0.0
01:10 20.2 65.0 1010.8 0.0 NNE 0.0 0.0
01:15 20.0 66.0 1010.7 0.0 NNE 0.0 0.0
01:20 19.8 66.0 1010.9 0.0 NNE 0.0 0.0
01:25 19.6 65.0 1010.9 0.0 N 0.0 0.0
01:30 19.4 65.0 1010.9 0.0 NNE 0.0 0.0
01:35 19.4 65.0 1010.9 0.0 NNE 0.0 0.0
01:40 19.3 65.0 1010.8 0.0 N 0.0 0.0
01:45 19.3 66.0 1010.8 0.0 SSW 0.0 0.0
01:50 19.3 66.0 1010.9 0.0 SSW 0.0 0.0
01:55 19.3 67.0 1010.9 0.0 SSW 0.0 0.0
02:00 19.3 67.0 1011.0 0.0 SSW 0.0 0.0
02:05 19.2 68.0 1011.0 0.0 SSW 0.0 0.0
02:10 19.1 68.0 1011.0 0.0 SSW 0.0 0.0
02:15 18.9 69.0 1011.0 0.0 SSW 0.0 0.0
02:20 18.9 69.0 1010.9 0.0 SSW 0.0 0.0
02:25 18.9 69.0 1010.9 0.0 SSW 0.0 0.0
02:30 18.9 71.0 1010.8 0.0 SSW 0.0 0.0
02:35 18.9 72.0 1010.8 0.0 SSW 0.0 0.0
02:40 18.9 73.0 1010.7 0.0 SSW 0.0 0.0
02:45 18.9 73.0 1010.7 0.0 SSW 0.0 0.0
02:50 18.9 73.0 1010.8 0.0 SSW 0.0 0.0
02:55 18.8 74.0 1010.7 0.0 SSW 0.0 0.0
03:00 18.8 74.0 1010.7 0.0 SSW 0.0 0.0
03:05 18.7 74.0 1010.7 0.0 SSW 0.0 0.0
03:10 18.6 74.0 1010.7 0.0 SSW 0.0 0.0
03:15 18.5 75.0 1010.7 0.0 SSW 0.0 0.0
03:20 18.4 75.0 1010.8 0.0 SSW 0.0 0.0
03:25 18.2 75.0 1010.8 0.0 SSW 0.0 0.0
03:30 18.2 76.0 1010.8 0.0 SSW 0.0 0.0
03:35 18.1 76.0 1010.8 0.0 SSW 0.0 0.0
03:40 18.0 76.0 1010.9 0.0 SSW 0.0 0.0
03:45 17.9 77.0 1010.8 0.0 SSW 0.0 0.0
03:50 17.9 77.0 1010.8 0.0 SSW 0.0 0.0
03:55 17.9 77.0 1010.7 0.0 SSW 0.0 0.0
04:00 17.9 77.0 1010.7 0.0 SSW 0.0 0.0
04:05 17.8 77.0 1010.8 0.0 SSW 0.0 0.0
04:10 17.7 77.0 1010.8 0.0 SSW 0.0 0.0
04:15 17.6 78.0 1010.8 0.0 SSW 0.0 0.0
04:20 17.4 78.0 1010.7 0.0 SSW 0.0 0.0
04:25 17.4 79.0 1010.7 0.0 SSW 0.0 0.0
04:30 17.4 79.0 1010.6 0.0 SSW 0.0 0.0
04:35 17.4 79.0 1010.7 0.0 SSW 0.0 0.0
04:40 17.4 79.0 1010.7 0.0 SSW 0.0 0.0
04:45 17.4 79.0 1010.7 0.0 SSW 0.0 0.0
04:50 17.5 79.0 1010.7 0.0 SSW 0.0 0.0
04:55 17.6 79.0 1010.7 0.0 SSW 0.0 0.0
05:00 17.6 78.0 1010.7 0.0 SSW 0.0 0.0
05:05 17.6 79.0 1010.7 0.0 SSW 0.0 0.0
05:10 17.5 79.0 1010.6 0.0 SSW 0.0 0.0
05:15 17.4 79.0 1010.8 0.0 SSW 0.0 0.0
05:20 17.4 79.0 1010.7 0.0 SSW 0.0 0.0
05:25 17.3 79.0 1010.8 0.0 SSW 0.0 0.0
05:30 17.4 79.0 1010.9 0.0 SSW 0.0 0.0
05:35 17.4 79.0 1010.9 0.0 SSW 0.0 0.0
05:40 17.6 79.0 1011.1 0.0 SSW 0.0 0.0
05:45 17.7 79.0 1011.1 0.0 SSW 0.0 0.0
05:50 17.9 78.0 1011.0 0.0 SSW 0.0 0.0
05:55 18.1 78.0 1011.1 0.0 SSW 0.0 0.0
06:00 18.2 78.0 1011.1 0.0 SSW 0.0 0.0
06:05 18.3 78.0 1011.2 0.0 SSW 0.0 0.0
06:10 18.6 77.0 1011.2 0.0 S 0.0 0.0
06:15 19.0 74.0 1011.3 0.0 E 0.0 0.0
06:20 19.5 71.0 1011.3 0.0 E 0.0 0.0
06:25 19.9 69.0 1011.2 0.0 ESE 0.0 0.0
06:30 20.3 65.0 1011.2 0.0 E 0.0 0.0
06:35 20.6 65.0 1011.3 0.0 E 0.0 0.0
06:40 20.8 63.0 1011.3 0.0 ESE 0.0 0.0
06:45 21.1 62.0 1011.3 0.0 E 0.0 0.0
06:50 21.3 62.0 1011.5 0.0 E 0.0 0.0
06:55 21.4 62.0 1011.3 0.0 SE 0.0 0.0
07:00 21.6 62.0 1011.4 0.0 SSE 0.0 0.0
07:05 21.6 62.0 1011.4 0.0 ESE 0.0 0.0
07:10 21.7 62.0 1011.3 0.0 E 0.0 0.0
07:15 21.6 64.0 1011.4 0.0 ESE 0.0 0.0
07:20 21.5 65.0 1011.4 0.0 ESE 0.0 0.0
07:25 21.6 65.0 1011.5 0.0 ESE 0.0 0.0
07:30 21.6 64.0 1011.5 0.0 ENE 0.0 0.0
07:35 21.6 63.0 1011.6 0.0 ESE 0.0 0.0
07:40 21.7 63.0 1011.7 0.0 ESE 0.0 0.0
07:45 21.8 63.0 1011.6 0.0 NE 0.0 0.0
07:50 21.8 64.0 1011.6 0.0 E 0.0 0.0
07:55 21.9 65.0 1011.8 0.0 NE 0.0 0.0
08:00 22.1 65.0 1011.7 0.0 ENE 0.0 0.0
08:05 22.2 64.0 1011.6 0.0 ESE 0.0 0.0
08:10 22.3 63.0 1011.7 0.0 E 0.0 0.0
Máxima 22.3 79.0 1011.8 0.0 E 0.0 0.0
Mínima 17.3 62.0 1010.6
Total 0.0